Time;durP1;ratioP1;P1;durP2;ratioP2;P2;SDS_P1;SDS_P2;PMS_P1;PMS_P2;Temp;Humidity;BMP_temperature;BMP_pressure;BME280_temperature;BME280_humidity;BME280_pressure;Samples;Min_cycle;Max_cycle;Signal;HPM_P1;HPM_P2
2022/06/24 00:00:05;;;;;;;;;;;;;;;;;;5013187;28;20404;-81
2022/06/24 00:02:31;;;;;;;;;;;;;;;;;;5013346;28;20285;-81
2022/06/24 00:04:57;;;;;;;;;;;;;;;;;;5012105;28;20524;-80
2022/06/24 00:07:23;;;;;;;;;;;;;;;;;;5013663;28;19921;-81
2022/06/24 00:09:49;;;;;;;;;;;;;;;;;;5013041;28;19917;-81
2022/06/24 00:12:15;;;;;;;;;;;;;;;;;;5012246;28;19963;-81
2022/06/24 00:14:41;;;;;;;;;;;;;;;;;;5011535;28;20008;-81
2022/06/24 00:17:07;;;;;;;;;;;;;;;;;;5013301;28;19909;-81
2022/06/24 00:19:32;;;;;;;;;;;;;;;;;;5012256;28;19913;-80
2022/06/24 00:21:58;;;;;;;;;;;;;;;;;;5011470;28;20329;-80
2022/06/24 00:24:24;;;;;;;;;;;;;;;;;;5013096;28;19909;-80
2022/06/24 00:26:50;;;;;;;;;;;;;;;;;;5012465;28;19967;-79
2022/06/24 00:29:16;;;;;;;;;;;;;;;;;;5010239;28;19960;-80
2022/06/24 00:31:42;;;;;;;;;;;;;;;;;;5012461;28;19919;-79
2022/06/24 00:34:08;;;;;;;;;;;;;;;;;;5012809;28;20003;-78
2022/06/24 00:36:34;;;;;;;;;;;;;;;;;;5012211;28;19991;-80
2022/06/24 00:39:00;;;;;;;;;;;;;;;;;;5010307;28;19916;-80
2022/06/24 00:41:26;;;;;;;;;;;;;;;;;;5012350;28;20008;-80
2022/06/24 00:43:51;;;;;;;;;;;;;;;;;;5010989;28;19909;-79
2022/06/24 00:46:17;;;;;;;;;;;;;;;;;;5012116;28;20035;-78
2022/06/24 00:48:43;;;;;;;;;;;;;;;;;;5011623;28;19968;-78
2022/06/24 00:51:09;;;;;;;;;;;;;;;;;;5012162;28;20258;-78
2022/06/24 00:53:35;;;;;;;;;;;;;;;;;;5012330;28;19941;-78
2022/06/24 00:56:01;;;;;;;;;;;;;;;;;;5010984;28;19913;-78
2022/06/24 00:58:27;;;;;;;;;;;;;;;;;;5011254;28;19910;-78
2022/06/24 01:00:53;;;;;;;;;;;;;;;;;;5012178;28;20016;-78
2022/06/24 01:03:18;;;;;;;;;;;;;;;;;;5010832;28;20123;-79
2022/06/24 01:05:44;;;;;;;;;;;;;;;;;;5012691;28;19992;-79
2022/06/24 01:08:10;;;;;;;;;;;;;;;;;;5012214;28;19910;-79
2022/06/24 01:10:36;;;;;;;;;;;;;;;;;;5010439;28;19960;-79
2022/06/24 01:13:02;;;;;;;;;;;;;;;;;;5012110;28;19997;-78
2022/06/24 01:15:28;;;;;;;;;;;;;;;;;;5011738;28;20362;-79
2022/06/24 01:17:54;;;;;;;;;;;;;;;;;;5012048;28;19914;-78
2022/06/24 01:20:20;;;;;;;;;;;;;;;;;;5010832;28;19909;-78
2022/06/24 01:22:46;;;;;;;;;;;;;;;;;;5012135;28;20365;-79
2022/06/24 01:25:11;;;;;;;;;;;;;;;;;;5010716;28;19917;-79
2022/06/24 01:27:37;;;;;;;;;;;;;;;;;;5012092;28;19960;-79
2022/06/24 01:30:03;;;;;;;;;;;;;;;;;;5011116;28;19910;-79
2022/06/24 01:32:29;;;;;;;;;;;;;;;;;;5010652;28;19932;-79
2022/06/24 01:34:56;;;;;;;;;;;;;;;;;;5015929;28;19956;-80
2022/06/24 01:37:21;;;;;;;;;;;;;;;;;;5015803;28;19952;-80
2022/06/24 01:39:47;;;;;;;;;;;;;;;;;;5013635;28;19988;-79
2022/06/24 01:42:13;;;;;;;;;;;;;;;;;;5015935;28;19920;-79
2022/06/24 01:44:39;;;;;;;;;;;;;;;;;;5014466;28;20389;-79
2022/06/24 01:47:05;;;;;;;;;;;;;;;;;;5015339;28;19994;-79
2022/06/24 01:49:31;;;;;;;;;;;;;;;;;;5014691;28;20427;-80
2022/06/24 01:51:59;;;;;;;;;;;;;;;;;;5014366;28;19915;-80
2022/06/24 01:54:25;;;;;;;;;;;;;;;;;;5015502;28;19910;-80
2022/06/24 01:56:51;;;;;;;;;;;;;;;;;;5015354;28;19924;-80
2022/06/24 01:59:17;;;;;;;;;;;;;;;;;;5014601;28;19917;-80
2022/06/24 02:01:43;;;;;;;;;;;;;;;;;;5015250;28;19913;-80
2022/06/24 02:04:09;;;;;;;;;;;;;;;;;;5015375;28;19910;-79
2022/06/24 02:06:34;;;;;;;;;;;;;;;;;;5013896;28;19940;-79
2022/06/24 02:09:00;;;;;;;;;;;;;;;;;;5013425;28;19952;-79
2022/06/24 02:14:11;;;;;;;;;;;;;;;;;;5014950;28;20013;-80
2022/06/24 02:16:37;;;;;;;;;;;;;;;;;;5013701;28;20356;-80
2022/06/24 02:19:02;;;;;;;;;;;;;;;;;;5014211;28;20334;-79
2022/06/24 02:21:28;;;;;;;;;;;;;;;;;;5013657;28;20012;-79
2022/06/24 02:23:54;;;;;;;;;;;;;;;;;;5013656;28;19936;-80
2022/06/24 02:26:20;;;;;;;;;;;;;;;;;;5013328;28;19963;-79
2022/06/24 02:28:46;;;;;;;;;;;;;;;;;;5014338;28;19909;-79
2022/06/24 02:31:12;;;;;;;;;;;;;;;;;;5014741;28;20034;-80
2022/06/24 02:33:38;;;;;;;;;;;;;;;;;;5013484;28;19961;-80
2022/06/24 02:36:04;;;;;;;;;;;;;;;;;;5013117;28;19956;-79
2022/06/24 02:38:30;;;;;;;;;;;;;;;;;;5012796;28;20384;-79
2022/06/24 02:40:58;;;;;;;;;;;;;;;;;;5014575;28;20028;-79
2022/06/24 02:43:24;;;;;;;;;;;;;;;;;;5014600;28;19921;-79
2022/06/24 02:45:49;;;;;;;;;;;;;;;;;;5014711;28;19909;-80
2022/06/24 02:48:15;;;;;;;;;;;;;;;;;;5013109;28;20599;-80
2022/06/24 02:50:41;;;;;;;;;;;;;;;;;;5013736;28;19957;-79
2022/06/24 02:53:07;;;;;;;;;;;;;;;;;;5014592;28;19909;-79
2022/06/24 02:55:33;;;;;;;;;;;;;;;;;;5014335;28;19920;-79
2022/06/24 02:57:59;;;;;;;;;;;;;;;;;;5014462;28;20285;-79
2022/06/24 03:00:25;;;;;;;;;;;;;;;;;;5012164;28;19949;-80
2022/06/24 03:02:51;;;;;;;;;;;;;;;;;;5013087;28;20384;-79
2022/06/24 03:05:16;;;;;;;;;;;;;;;;;;5014390;28;19916;-79
2022/06/24 03:07:42;;;;;;;;;;;;;;;;;;5012924;28;19917;-79
2022/06/24 03:10:08;;;;;;;;;;;;;;;;;;5013676;28;19917;-80
2022/06/24 03:12:34;;;;;;;;;;;;;;;;;;5012781;28;19939;-80
2022/06/24 03:15:00;;;;;;;;;;;;;;;;;;5013843;28;20322;-79
2022/06/24 03:17:26;;;;;;;;;;;;;;;;;;5014213;28;19910;-80
2022/06/24 03:19:52;;;;;;;;;;;;;;;;;;5012155;28;19917;-79
2022/06/24 03:22:18;;;;;;;;;;;;;;;;;;5014372;28;19944;-79
2022/06/24 03:24:44;;;;;;;;;;;;;;;;;;5013870;28;19963;-80
2022/06/24 03:27:09;;;;;;;;;;;;;;;;;;5012898;28;20031;-79
2022/06/24 03:29:35;;;;;;;;;;;;;;;;;;5013776;28;20400;-80
2022/06/24 03:32:01;;;;;;;;;;;;;;;;;;5014551;28;19948;-79
2022/06/24 03:34:27;;;;;;;;;;;;;;;;;;5013804;28;19913;-79
2022/06/24 03:36:53;;;;;;;;;;;;;;;;;;5014155;28;20447;-79
2022/06/24 03:39:19;;;;;;;;;;;;;;;;;;5011564;28;19965;-78
2022/06/24 03:41:45;;;;;;;;;;;;;;;;;;5013767;28;20285;-78
2022/06/24 03:44:11;;;;;;;;;;;;;;;;;;5013832;28;19910;-78
2022/06/24 03:46:37;;;;;;;;;;;;;;;;;;5012091;28;19921;-80
2022/06/24 03:49:03;;;;;;;;;;;;;;;;;;5012767;28;20000;-79
2022/06/24 03:51:29;;;;;;;;;;;;;;;;;;5013996;28;19916;-79
2022/06/24 03:53:56;;;;;;;;;;;;;;;;;;5012790;28;20127;-80
2022/06/24 03:56:22;;;;;;;;;;;;;;;;;;5012961;28;19965;-79
2022/06/24 03:58:48;;;;;;;;;;;;;;;;;;5012871;28;19913;-79
2022/06/24 04:01:14;;;;;;;;;;;;;;;;;;5013333;28;19917;-78
2022/06/24 04:03:40;;;;;;;;;;;;;;;;;;5013609;28;19910;-78
2022/06/24 04:06:06;;;;;;;;;;;;;;;;;;5013348;28;19935;-79
2022/06/24 04:08:32;;;;;;;;;;;;;;;;;;5012733;28;19972;-80
2022/06/24 04:10:58;;;;;;;;;;;;;;;;;;5013434;28;19964;-80
2022/06/24 04:13:23;;;;;;;;;;;;;;;;;;5013264;28;19909;-80
2022/06/24 04:15:50;;;;;;;;;;;;;;;;;;5013413;28;20004;-81
2022/06/24 04:18:15;;;;;;;;;;;;;;;;;;5011944;28;20000;-80
2022/06/24 04:20:41;;;;;;;;;;;;;;;;;;5012619;28;20397;-79
2022/06/24 04:23:07;;;;;;;;;;;;;;;;;;5013054;28;19963;-79
2022/06/24 04:25:33;;;;;;;;;;;;;;;;;;5013416;28;19917;-81
2022/06/24 04:27:59;;;;;;;;;;;;;;;;;;5030939;28;20365;-80
2022/06/24 04:30:26;;;;;;;;;;;;;;;;;;5033136;28;20019;-79
2022/06/24 04:32:51;;;;;;;;;;;;;;;;;;5032587;28;19909;-78
2022/06/24 04:35:17;;;;;;;;;;;;;;;;;;5033179;28;20313;-79
2022/06/24 04:37:43;;;;;;;;;;;;;;;;;;5033337;28;20316;-80
2022/06/24 04:40:09;;;;;;;;;;;;;;;;;;5027471;28;20007;-79
2022/06/24 04:42:35;;;;;;;;;;;;;;;;;;5030189;28;20373;-79
2022/06/24 04:45:01;;;;;;;;;;;;;;;;;;5034599;28;19955;-79
2022/06/24 04:47:27;;;;;;;;;;;;;;;;;;5030080;28;20292;-80
2022/06/24 04:49:53;;;;;;;;;;;;;;;;;;5014169;28;19988;-80
2022/06/24 04:52:19;;;;;;;;;;;;;;;;;;5016132;28;19916;-79
2022/06/24 04:54:45;;;;;;;;;;;;;;;;;;5013548;28;20447;-80
2022/06/24 04:57:11;;;;;;;;;;;;;;;;;;5017121;28;19963;-78
2022/06/24 04:59:37;;;;;;;;;;;;;;;;;;5013364;28;20186;-79
2022/06/24 05:02:03;;;;;;;;;;;;;;;;;;5015108;28;20022;-80
2022/06/24 05:04:29;;;;;;;;;;;;;;;;;;5014259;28;19913;-80
2022/06/24 05:06:55;;;;;;;;;;;;;;;;;;5024841;28;19913;-80
2022/06/24 05:09:20;;;;;;;;;;;;;;;;;;5028329;28;19977;-79
2022/06/24 05:11:48;;;;;;;;;;;;;;;;;;5032695;28;19910;-80
2022/06/24 05:14:14;;;;;;;;;;;;;;;;;;5034755;28;20043;-80
2022/06/24 05:16:44;;;;;;;;;;;;;;;;;;5028081;28;19973;-79
2022/06/24 05:19:10;;;;;;;;;;;;;;;;;;5037293;28;20368;-79
2022/06/24 05:21:36;;;;;;;;;;;;;;;;;;5047430;28;19914;-79
2022/06/24 05:24:02;;;;;;;;;;;;;;;;;;5032829;28;20108;-77
2022/06/24 05:26:28;;;;;;;;;;;;;;;;;;5032856;28;20031;-77
2022/06/24 05:28:53;;;;;;;;;;;;;;;;;;5037106;28;19913;-79
2022/06/24 05:31:19;;;;;;;;;;;;;;;;;;5053289;28;19912;-78
2022/06/24 05:33:45;;;;;;;;;;;;;;;;;;5054097;28;20369;-78
2022/06/24 05:36:11;;;;;;;;;;;;;;;;;;5052453;28;20002;-78
2022/06/24 05:38:37;;;;;;;;;;;;;;;;;;5046123;28;19913;-79
2022/06/24 05:41:03;;;;;;;;;;;;;;;;;;5012205;28;20362;-78
2022/06/24 05:43:29;;;;;;;;;;;;;;;;;;5033306;28;19963;-78
2022/06/24 05:45:55;;;;;;;;;;;;;;;;;;5033053;28;19924;-78
2022/06/24 05:48:21;;;;;;;;;;;;;;;;;;5032798;28;19971;-78
2022/06/24 05:50:46;;;;;;;;;;;;;;;;;;5033162;28;19951;-79
2022/06/24 05:56:00;;;;;;;;;;;;;;;;;;5039828;28;19964;-78
2022/06/24 05:58:26;;;;;;;;;;;;;;;;;;5013088;28;19909;-79
2022/06/24 06:00:53;;;;;;;;;;;;;;;;;;5013247;28;19909;-80
2022/06/24 06:03:19;;;;;;;;;;;;;;;;;;5013744;28;20344;-79
2022/06/24 06:05:45;;;;;;;;;;;;;;;;;;5011928;28;20223;-80
2022/06/24 06:08:11;;;;;;;;;;;;;;;;;;5012654;28;19909;-80
2022/06/24 06:10:37;;;;;;;;;;;;;;;;;;5043815;28;19913;-80
2022/06/24 06:13:03;;;;;;;;;;;;;;;;;;5037898;28;19916;-80
2022/06/24 06:15:29;;;;;;;;;;;;;;;;;;5010685;28;19913;-79
2022/06/24 06:17:55;;;;;;;;;;;;;;;;;;5014970;28;19996;-80
2022/06/24 06:20:21;;;;;;;;;;;;;;;;;;5035222;28;19953;-80
2022/06/24 06:22:46;;;;;;;;;;;;;;;;;;5050000;28;20260;-79
2022/06/24 06:25:15;;;;;;;;;;;;;;;;;;5056268;28;19908;-78
2022/06/24 06:27:41;;;;;;;;;;;;;;;;;;5056069;28;20333;-79
2022/06/24 06:30:06;;;;;;;;;;;;;;;;;;5045504;28;19945;-80
2022/06/24 06:32:32;;;;;;;;;;;;;;;;;;5053511;28;20315;-81
2022/06/24 06:34:58;;;;;;;;;;;;;;;;;;5053030;28;19913;-80
2022/06/24 06:37:24;;;;;;;;;;;;;;;;;;5053290;28;19913;-80
2022/06/24 06:39:50;;;;;;;;;;;;;;;;;;5053620;28;19951;-79
2022/06/24 06:42:16;;;;;;;;;;;;;;;;;;5054442;28;20000;-80
2022/06/24 06:44:42;;;;;;;;;;;;;;;;;;5056963;28;19909;-79
2022/06/24 06:47:08;;;;;;;;;;;;;;;;;;5039674;28;19925;-80
2022/06/24 06:49:34;;;;;;;;;;;;;;;;;;5013936;28;19909;-80
2022/06/24 06:52:00;;;;;;;;;;;;;;;;;;5044252;28;19974;-79
2022/06/24 06:54:26;;;;;;;;;;;;;;;;;;5055435;28;19939;-80
2022/06/24 06:56:51;;;;;;;;;;;;;;;;;;5052811;28;19982;-80
2022/06/24 06:59:17;;;;;;;;;;;;;;;;;;5053805;28;19919;-80
2022/06/24 07:01:43;;;;;;;;;;;;;;;;;;5054312;28;19955;-80
2022/06/24 07:04:09;;;;;;;;;;;;;;;;;;5036976;28;19916;-80
2022/06/24 07:06:35;;;;;;;;;;;;;;;;;;5015136;28;19963;-81
2022/06/24 07:09:01;;;;;;;;;;;;;;;;;;5015367;28;19910;-80
2022/06/24 07:11:28;;;;;;;;;;;;;;;;;;5013175;28;19936;-80
2022/06/24 07:13:54;;;;;;;;;;;;;;;;;;5015025;28;19917;-80
2022/06/24 07:16:20;;;;;;;;;;;;;;;;;;5014500;28;20292;-80
2022/06/24 07:18:46;;;;;;;;;;;;;;;;;;5024452;28;19909;-80
2022/06/24 07:21:15;;;;;;;;;;;;;;;;;;5026903;28;19924;-81
2022/06/24 07:23:41;;;;;;;;;;;;;;;;;;5016755;28;19952;-80
2022/06/24 07:26:07;;;;;;;;;;;;;;;;;;5015346;28;19909;-80
2022/06/24 07:28:33;;;;;;;;;;;;;;;;;;5015544;28;20004;-80
2022/06/24 07:30:59;;;;;;;;;;;;;;;;;;5012488;28;19909;-79
2022/06/24 07:33:25;;;;;;;;;;;;;;;;;;5040624;28;19917;-80
2022/06/24 07:35:50;;;;;;;;;;;;;;;;;;5052810;28;19979;-80
2022/06/24 07:38:16;;;;;;;;;;;;;;;;;;5034538;28;20004;-79
2022/06/24 07:40:42;;;;;;;;;;;;;;;;;;5038346;28;20269;-80
2022/06/24 07:43:08;;;;;;;;;;;;;;;;;;5052750;28;19956;-80
2022/06/24 07:45:35;;;;;;;;;;;;;;;;;;5054828;28;19915;-80
2022/06/24 07:48:01;;;;;;;;;;;;;;;;;;5055817;28;20062;-80
2022/06/24 07:50:27;;;;;;;;;;;;;;;;;;5054031;28;19909;-79
2022/06/24 07:52:53;;;;;;;;;;;;;;;;;;5053185;28;20414;-80
2022/06/24 07:58:03;;;;;;;;;;;;;;;;;;5015415;28;19917;-80
2022/06/24 08:00:29;;;;;;;;;;;;;;;;;;5013983;28;20387;-80
2022/06/24 08:02:55;;;;;;;;;;;;;;;;;;5013453;28;19984;-80
2022/06/24 08:05:21;;;;;;;;;;;;;;;;;;5013418;28;20000;-80
2022/06/24 08:07:47;;;;;;;;;;;;;;;;;;5014978;28;20366;-80
2022/06/24 08:10:13;;;;;;;;;;;;;;;;;;5013137;28;19916;-80
2022/06/24 08:12:39;;;;;;;;;;;;;;;;;;5015082;28;19909;-81
2022/06/24 08:15:05;;;;;;;;;;;;;;;;;;5013202;28;20297;-80
2022/06/24 08:17:31;;;;;;;;;;;;;;;;;;5013913;28;19910;-80
2022/06/24 08:19:57;;;;;;;;;;;;;;;;;;5033362;28;19913;-80
2022/06/24 08:22:23;;;;;;;;;;;;;;;;;;5048901;28;19917;-81
2022/06/24 08:24:49;;;;;;;;;;;;;;;;;;5054458;28;20385;-81
2022/06/24 08:27:14;;;;;;;;;;;;;;;;;;5052735;28;19913;-80
2022/06/24 08:29:40;;;;;;;;;;;;;;;;;;5050589;28;19913;-79
2022/06/24 08:32:06;;;;;;;;;;;;;;;;;;5052267;28;19975;-80
2022/06/24 08:34:32;;;;;;;;;;;;;;;;;;5052013;28;19916;-80
2022/06/24 08:36:58;;;;;;;;;;;;;;;;;;5051738;28;19936;-80
2022/06/24 08:39:24;;;;;;;;;;;;;;;;;;5052396;28;19917;-80
2022/06/24 08:41:50;;;;;;;;;;;;;;;;;;5051651;28;19909;-81
2022/06/24 08:44:16;;;;;;;;;;;;;;;;;;5052818;28;19999;-80
2022/06/24 08:46:42;;;;;;;;;;;;;;;;;;5042659;28;19917;-80
2022/06/24 08:49:07;;;;;;;;;;;;;;;;;;5025374;28;19921;-80
2022/06/24 08:51:33;;;;;;;;;;;;;;;;;;5013492;28;20388;-80
2022/06/24 08:54:01;;;;;;;;;;;;;;;;;;5032467;28;19955;-80
2022/06/24 08:56:26;;;;;;;;;;;;;;;;;;5023043;28;19917;-81
2022/06/24 08:58:52;;;;;;;;;;;;;;;;;;5029697;28;19932;-80
2022/06/24 09:01:18;;;;;;;;;;;;;;;;;;5032221;28;19909;-81
2022/06/24 09:03:44;;;;;;;;;;;;;;;;;;5023490;28;19913;-80
2022/06/24 09:06:10;;;;;;;;;;;;;;;;;;5022436;28;19929;-80
2022/06/24 09:08:36;;;;;;;;;;;;;;;;;;5031460;28;19917;-80
2022/06/24 09:11:08;;;;;;;;;;;;;;;;;;5031152;28;20311;-79
2022/06/24 09:13:34;;;;;;;;;;;;;;;;;;5032019;28;20203;-80
2022/06/24 09:16:00;;;;;;;;;;;;;;;;;;5032384;28;19948;-82
2022/06/24 09:18:26;;;;;;;;;;;;;;;;;;5023408;28;19914;-80
2022/06/24 09:20:52;;;;;;;;;;;;;;;;;;5033386;28;19913;-80
2022/06/24 09:23:18;;;;;;;;;;;;;;;;;;5030353;28;19935;-80
2022/06/24 09:25:44;;;;;;;;;;;;;;;;;;5035161;28;19909;-80
2022/06/24 09:28:10;;;;;;;;;;;;;;;;;;5031901;28;19920;-80
2022/06/24 09:30:36;;;;;;;;;;;;;;;;;;5025680;28;19953;-80
2022/06/24 09:33:02;;;;;;;;;;;;;;;;;;5027757;28;19967;-80
2022/06/24 09:35:28;;;;;;;;;;;;;;;;;;5033767;28;19971;-80
2022/06/24 09:37:54;;;;;;;;;;;;;;;;;;5029610;28;20012;-80
2022/06/24 09:40:20;;;;;;;;;;;;;;;;;;5033106;28;19944;-80
2022/06/24 09:42:46;;;;;;;;;;;;;;;;;;5036472;28;19920;-80
2022/06/24 09:45:12;;;;;;;;;;;;;;;;;;5035618;28;19955;-80
2022/06/24 09:47:38;;;;;;;;;;;;;;;;;;5033235;28;20281;-80
2022/06/24 09:50:04;;;;;;;;;;;;;;;;;;5034278;28;19909;-80
2022/06/24 09:52:30;;;;;;;;;;;;;;;;;;5035653;28;19916;-81
2022/06/24 09:54:56;;;;;;;;;;;;;;;;;;5026186;28;19945;-80
2022/06/24 09:57:21;;;;;;;;;;;;;;;;;;5036869;28;19913;-80
2022/06/24 10:02:32;;;;;;;;;;;;;;;;;;5032971;28;20008;-80
2022/06/24 10:04:59;;;;;;;;;;;;;;;;;;5033399;28;19967;-80
2022/06/24 10:07:25;;;;;;;;;;;;;;;;;;5033639;28;19915;-80
2022/06/24 10:09:51;;;;;;;;;;;;;;;;;;5038439;28;19913;-79
2022/06/24 10:12:17;;;;;;;;;;;;;;;;;;5034415;28;20378;-81
2022/06/24 10:14:43;;;;;;;;;;;;;;;;;;5035428;28;19966;-80
2022/06/24 10:17:09;;;;;;;;;;;;;;;;;;5028182;28;19917;-78
2022/06/24 10:19:35;;;;;;;;;;;;;;;;;;5032556;28;19917;-79
2022/06/24 10:22:01;;;;;;;;;;;;;;;;;;5035495;28;19913;-78
2022/06/24 10:24:27;;;;;;;;;;;;;;;;;;5033874;28;19917;-78
2022/06/24 10:26:55;;;;;;;;;;;;;;;;;;5034222;28;19971;-78
2022/06/24 10:29:21;;;;;;;;;;;;;;;;;;5023119;28;19996;-78
2022/06/24 10:31:54;;;;;;;;;;;;;;;;;;5034016;28;19996;-78
2022/06/24 10:34:22;;;;;;;;;;;;;;;;;;5034109;28;19913;-78
2022/06/24 10:36:48;;;;;;;;;;;;;;;;;;5034224;28;19924;-78
2022/06/24 10:39:14;;;;;;;;;;;;;;;;;;5037305;28;19917;-78
2022/06/24 10:41:41;;;;;;;;;;;;;;;;;;5054113;28;19913;-79
2022/06/24 10:44:07;;;;;;;;;;;;;;;;;;5054096;28;19916;-80
2022/06/24 10:46:32;;;;;;;;;;;;;;;;;;5053723;28;19912;-78
2022/06/24 10:48:59;;;;;;;;;;;;;;;;;;5052833;28;20372;-78
2022/06/24 10:51:25;;;;;;;;;;;;;;;;;;5052147;28;19916;-77
2022/06/24 10:53:51;;;;;;;;;;;;;;;;;;5053047;28;19909;-77
2022/06/24 10:56:17;;;;;;;;;;;;;;;;;;5053104;28;19921;-78
2022/06/24 10:58:43;;;;;;;;;;;;;;;;;;5048013;28;19959;-78
2022/06/24 11:01:09;;;;;;;;;;;;;;;;;;5028888;28;20419;-78
2022/06/24 11:03:35;;;;;;;;;;;;;;;;;;5014349;28;19917;-77
2022/06/24 11:06:01;;;;;;;;;;;;;;;;;;5025259;28;20277;-77
2022/06/24 11:08:27;;;;;;;;;;;;;;;;;;5031242;28;19913;-78
2022/06/24 11:10:53;;;;;;;;;;;;;;;;;;5033133;28;19913;-79
2022/06/24 11:13:21;;;;;;;;;;;;;;;;;;5033421;28;19913;-78
2022/06/24 11:15:46;;;;;;;;;;;;;;;;;;5032759;28;19920;-78
2022/06/24 11:18:12;;;;;;;;;;;;;;;;;;5021171;28;19909;-78
2022/06/24 11:20:38;;;;;;;;;;;;;;;;;;5020124;28;19913;-79
2022/06/24 11:23:04;;;;;;;;;;;;;;;;;;5032888;28;19909;-79
2022/06/24 11:25:30;;;;;;;;;;;;;;;;;;5028470;28;20277;-79
2022/06/24 11:27:56;;;;;;;;;;;;;;;;;;5032211;28;19991;-79
2022/06/24 11:30:22;;;;;;;;;;;;;;;;;;5025212;28;20405;-79
2022/06/24 11:32:48;;;;;;;;;;;;;;;;;;5020223;28;19924;-79
2022/06/24 11:35:14;;;;;;;;;;;;;;;;;;5029452;28;20519;-79
2022/06/24 11:37:40;;;;;;;;;;;;;;;;;;5037193;28;19963;-79
2022/06/24 11:40:06;;;;;;;;;;;;;;;;;;5027145;28;19981;-80
2022/06/24 11:42:32;;;;;;;;;;;;;;;;;;5017373;28;19918;-79
2022/06/24 11:44:57;;;;;;;;;;;;;;;;;;5035050;28;19939;-80
2022/06/24 11:47:23;;;;;;;;;;;;;;;;;;5033499;28;19921;-81
2022/06/24 11:49:49;;;;;;;;;;;;;;;;;;5034341;28;19909;-79
2022/06/24 11:52:15;;;;;;;;;;;;;;;;;;5031850;28;19917;-81
2022/06/24 11:54:41;;;;;;;;;;;;;;;;;;5012726;28;19913;-79
2022/06/24 11:57:08;;;;;;;;;;;;;;;;;;5014445;28;19914;-81
2022/06/24 11:59:34;;;;;;;;;;;;;;;;;;5028419;28;19912;-78
2022/06/24 12:02:00;;;;;;;;;;;;;;;;;;5035640;28;19967;-78
2022/06/24 12:04:26;;;;;;;;;;;;;;;;;;5034078;28;19920;-79
2022/06/24 12:06:52;;;;;;;;;;;;;;;;;;5028633;28;19920;-78
2022/06/24 12:09:17;;;;;;;;;;;;;;;;;;5023435;28;19917;-79
2022/06/24 12:11:43;;;;;;;;;;;;;;;;;;5024718;28;20346;-78
2022/06/24 12:14:09;;;;;;;;;;;;;;;;;;5025803;28;19920;-78
2022/06/24 12:16:35;;;;;;;;;;;;;;;;;;5037367;28;19941;-78
2022/06/24 12:19:01;;;;;;;;;;;;;;;;;;5039486;28;20446;-78
2022/06/24 12:21:27;;;;;;;;;;;;;;;;;;5034798;28;19921;-78
2022/06/24 12:23:53;;;;;;;;;;;;;;;;;;5032497;28;20008;-77
2022/06/24 12:26:19;;;;;;;;;;;;;;;;;;5032505;28;19941;-78
2022/06/24 12:28:45;;;;;;;;;;;;;;;;;;5019681;28;19909;-79
2022/06/24 12:31:11;;;;;;;;;;;;;;;;;;5032037;28;20051;-78
2022/06/24 12:33:38;;;;;;;;;;;;;;;;;;5021598;28;19963;-77
2022/06/24 12:36:04;;;;;;;;;;;;;;;;;;5025821;28;20304;-79
2022/06/24 12:38:30;;;;;;;;;;;;;;;;;;5022256;28;19917;-78
2022/06/24 12:40:56;;;;;;;;;;;;;;;;;;5031334;28;19916;-79
2022/06/24 12:43:23;;;;;;;;;;;;;;;;;;5030403;28;19913;-80
2022/06/24 12:45:49;;;;;;;;;;;;;;;;;;5024166;28;20008;-79
2022/06/24 12:50:59;;;;;;;;;;;;;;;;;;5029326;28;20008;-80
2022/06/24 12:53:25;;;;;;;;;;;;;;;;;;5018812;28;19921;-80
2022/06/24 12:55:52;;;;;;;;;;;;;;;;;;5033153;28;19975;-81
2022/06/24 12:58:18;;;;;;;;;;;;;;;;;;5036962;28;19920;-80
2022/06/24 13:00:44;;;;;;;;;;;;;;;;;;5030407;28;19909;-80
2022/06/24 13:03:10;;;;;;;;;;;;;;;;;;5011046;28;19917;-80
2022/06/24 13:05:36;;;;;;;;;;;;;;;;;;5011707;28;19914;-79
2022/06/24 13:08:02;;;;;;;;;;;;;;;;;;5031038;28;19913;-80
2022/06/24 13:10:28;;;;;;;;;;;;;;;;;;5049012;28;19913;-80
2022/06/24 13:12:54;;;;;;;;;;;;;;;;;;5038560;28;19916;-80
2022/06/24 13:15:20;;;;;;;;;;;;;;;;;;5029052;28;19920;-80
2022/06/24 13:17:46;;;;;;;;;;;;;;;;;;5033114;28;19921;-79
2022/06/24 13:20:12;;;;;;;;;;;;;;;;;;5050538;28;19916;-79
2022/06/24 13:22:37;;;;;;;;;;;;;;;;;;5050965;28;20692;-80
2022/06/24 13:25:05;;;;;;;;;;;;;;;;;;5038998;28;19909;-80
2022/06/24 13:27:31;;;;;;;;;;;;;;;;;;5035002;28;19917;-81
2022/06/24 13:29:57;;;;;;;;;;;;;;;;;;5050595;28;20135;-81
2022/06/24 13:32:23;;;;;;;;;;;;;;;;;;5050126;28;19959;-80
2022/06/24 13:34:49;;;;;;;;;;;;;;;;;;5048872;28;19917;-80
2022/06/24 13:37:15;;;;;;;;;;;;;;;;;;5053432;28;19919;-79
2022/06/24 13:39:41;;;;;;;;;;;;;;;;;;5053286;28;20004;-82
2022/06/24 13:42:07;;;;;;;;;;;;;;;;;;5043576;28;19923;-80
2022/06/24 13:44:35;;;;;;;;;;;;;;;;;;5048736;28;19917;-80
2022/06/24 13:47:01;;;;;;;;;;;;;;;;;;5051626;28;19919;-80
2022/06/24 13:49:27;;;;;;;;;;;;;;;;;;5046275;28;19916;-81
2022/06/24 13:51:53;;;;;;;;;;;;;;;;;;5042058;28;20358;-79
2022/06/24 13:54:19;;;;;;;;;;;;;;;;;;5014258;28;20277;-81
2022/06/24 13:56:45;;;;;;;;;;;;;;;;;;5014550;28;19944;-81
2022/06/24 13:59:14;;;;;;;;;;;;;;;;;;5031996;28;19917;-82
2022/06/24 14:01:40;;;;;;;;;;;;;;;;;;5031809;28;20284;-81
2022/06/24 14:04:06;;;;;;;;;;;;;;;;;;5034859;28;19917;-82
2022/06/24 14:06:32;;;;;;;;;;;;;;;;;;5034531;28;19914;-83
2022/06/24 14:08:58;;;;;;;;;;;;;;;;;;5026809;28;19976;-81
2022/06/24 14:11:24;;;;;;;;;;;;;;;;;;5016411;28;20358;-81
2022/06/24 14:13:50;;;;;;;;;;;;;;;;;;5026102;28;20284;-82
2022/06/24 14:16:16;;;;;;;;;;;;;;;;;;5035651;28;19917;-82
2022/06/24 14:18:42;;;;;;;;;;;;;;;;;;5023520;28;19932;-81
2022/06/24 14:21:08;;;;;;;;;;;;;;;;;;5013605;28;20460;-82
2022/06/24 14:26:21;;;;;;;;;;;;;;;;;;5024836;28;20010;-82
2022/06/24 14:28:47;;;;;;;;;;;;;;;;;;5034281;28;19951;-83
2022/06/24 14:31:14;;;;;;;;;;;;;;;;;;5037699;28;19952;-83
2022/06/24 14:33:39;;;;;;;;;;;;;;;;;;5034730;28;19936;-84
2022/06/24 14:36:05;;;;;;;;;;;;;;;;;;5035478;28;20008;-84
2022/06/24 14:41:16;;;;;;;;;;;;;;;;;;5036128;28;20458;-82
2022/06/24 14:43:43;;;;;;;;;;;;;;;;;;5023062;28;19937;-81
2022/06/24 14:46:09;;;;;;;;;;;;;;;;;;5031825;28;19924;-82
2022/06/24 14:48:34;;;;;;;;;;;;;;;;;;5033024;28;19917;-84
2022/06/24 14:51:00;;;;;;;;;;;;;;;;;;5033181;28;19914;-82
2022/06/24 14:53:26;;;;;;;;;;;;;;;;;;5034715;28;19909;-82
2022/06/24 14:55:52;;;;;;;;;;;;;;;;;;5033362;28;19917;-82
2022/06/24 14:58:18;;;;;;;;;;;;;;;;;;5018380;28;19963;-81
2022/06/24 15:00:44;;;;;;;;;;;;;;;;;;5013929;28;19914;-82
2022/06/24 15:03:10;;;;;;;;;;;;;;;;;;5013968;28;19913;-82
2022/06/24 15:05:36;;;;;;;;;;;;;;;;;;5012827;28;20363;-81
2022/06/24 15:08:02;;;;;;;;;;;;;;;;;;5015337;28;19963;-83
2022/06/24 15:10:28;;;;;;;;;;;;;;;;;;5012139;28;19913;-79
2022/06/24 15:12:54;;;;;;;;;;;;;;;;;;5013210;28;19913;-80
2022/06/24 15:15:20;;;;;;;;;;;;;;;;;;5012874;28;20362;-79
2022/06/24 15:17:46;;;;;;;;;;;;;;;;;;5013407;28;20328;-81
2022/06/24 15:20:13;;;;;;;;;;;;;;;;;;5020730;28;19920;-82
2022/06/24 15:22:38;;;;;;;;;;;;;;;;;;5052131;28;20312;-82
2022/06/24 15:25:04;;;;;;;;;;;;;;;;;;5050681;28;19917;-83
2022/06/24 15:27:30;;;;;;;;;;;;;;;;;;5055172;28;19908;-83
2022/06/24 15:29:56;;;;;;;;;;;;;;;;;;5052986;28;20631;-83
2022/06/24 15:32:22;;;;;;;;;;;;;;;;;;5054464;28;19969;-82
2022/06/24 15:34:48;;;;;;;;;;;;;;;;;;5032951;28;19917;-83
2022/06/24 15:37:14;;;;;;;;;;;;;;;;;;5032941;28;19924;-81
2022/06/24 15:39:40;;;;;;;;;;;;;;;;;;5032554;28;20431;-81
2022/06/24 15:42:06;;;;;;;;;;;;;;;;;;5032058;28;19920;-82
2022/06/24 15:44:31;;;;;;;;;;;;;;;;;;5028332;28;19928;-82
2022/06/24 15:46:57;;;;;;;;;;;;;;;;;;5024841;28;20317;-83
2022/06/24 15:49:23;;;;;;;;;;;;;;;;;;5027718;28;19970;-81
2022/06/24 15:51:49;;;;;;;;;;;;;;;;;;5028351;28;19939;-82
2022/06/24 15:54:15;;;;;;;;;;;;;;;;;;5029378;28;19917;-81
2022/06/24 15:56:41;;;;;;;;;;;;;;;;;;5021770;28;19917;-81
2022/06/24 15:59:07;;;;;;;;;;;;;;;;;;5027656;28;20597;-81
2022/06/24 16:01:33;;;;;;;;;;;;;;;;;;5031333;28;19913;-81
2022/06/24 16:03:59;;;;;;;;;;;;;;;;;;5030715;28;19921;-81
2022/06/24 16:06:25;;;;;;;;;;;;;;;;;;5031257;28;19916;-81
2022/06/24 16:08:51;;;;;;;;;;;;;;;;;;5018695;28;19917;-81
2022/06/24 16:11:17;;;;;;;;;;;;;;;;;;5024465;28;20008;-82
2022/06/24 16:13:42;;;;;;;;;;;;;;;;;;5032566;28;19910;-82
2022/06/24 16:16:08;;;;;;;;;;;;;;;;;;5032318;28;20281;-81
2022/06/24 16:18:34;;;;;;;;;;;;;;;;;;5036760;28;19948;-82
2022/06/24 16:21:00;;;;;;;;;;;;;;;;;;5013539;28;19917;-82
2022/06/24 16:23:27;;;;;;;;;;;;;;;;;;5029678;28;19917;-82
2022/06/24 16:28:41;;;;;;;;;;;;;;;;;;5029748;28;19980;-83
2022/06/24 16:31:07;;;;;;;;;;;;;;;;;;5030595;28;19920;-82
2022/06/24 16:33:33;;;;;;;;;;;;;;;;;;5028325;28;20313;-82
2022/06/24 16:36:00;;;;;;;;;;;;;;;;;;5021277;28;19960;-81
2022/06/24 16:38:26;;;;;;;;;;;;;;;;;;5017927;28;19913;-82
2022/06/24 16:40:52;;;;;;;;;;;;;;;;;;5026338;28;19918;-80
2022/06/24 16:43:18;;;;;;;;;;;;;;;;;;5026848;28;20297;-80
2022/06/24 16:45:43;;;;;;;;;;;;;;;;;;5015781;28;19917;-81
2022/06/24 16:48:09;;;;;;;;;;;;;;;;;;5029296;28;20277;-81
2022/06/24 16:50:35;;;;;;;;;;;;;;;;;;5030263;28;19999;-82
2022/06/24 16:53:01;;;;;;;;;;;;;;;;;;5021850;28;19909;-80
2022/06/24 16:55:27;;;;;;;;;;;;;;;;;;5011736;28;19964;-80
2022/06/24 16:57:54;;;;;;;;;;;;;;;;;;5011021;28;19914;-80